sensor_id;sensor_type;location;lat;lon;timestamp;P1;durP1;ratioP1;P2;durP2;ratioP2
6580;SDS011;3324;50.796;7.228;2023-09-07T00:02:19;0.30;;;0.20;;
6580;SDS011;3324;50.796;7.228;2023-09-07T00:04:45;1.90;;;0.60;;
6580;SDS011;3324;50.796;7.228;2023-09-07T00:07:10;0.30;;;0.20;;
6580;SDS011;3324;50.796;7.228;2023-09-07T00:09:37;0.30;;;0.20;;
6580;SDS011;3324;50.796;7.228;2023-09-07T00:12:02;0.30;;;0.20;;
6580;SDS011;3324;50.796;7.228;2023-09-07T00:14:28;1.90;;;0.60;;
6580;SDS011;3324;50.796;7.228;2023-09-07T00:16:54;0.30;;;0.20;;
6580;SDS011;3324;50.796;7.228;2023-09-07T00:19:19;0.30;;;0.20;;
6580;SDS011;3324;50.796;7.228;2023-09-07T00:21:45;0.30;;;0.20;;
6580;SDS011;3324;50.796;7.228;2023-09-07T00:24:10;1.00;;;0.20;;
6580;SDS011;3324;50.796;7.228;2023-09-07T00:26:36;0.30;;;0.20;;
6580;SDS011;3324;50.796;7.228;2023-09-07T00:29:01;0.30;;;0.20;;
6580;SDS011;3324;50.796;7.228;2023-09-07T00:31:27;1.90;;;0.50;;
6580;SDS011;3324;50.796;7.228;2023-09-07T00:33:53;0.30;;;0.20;;
6580;SDS011;3324;50.796;7.228;2023-09-07T00:36:18;0.30;;;0.20;;
6580;SDS011;3324;50.796;7.228;2023-09-07T00:38:44;1.90;;;0.50;;
6580;SDS011;3324;50.796;7.228;2023-09-07T00:41:11;0.30;;;0.20;;
6580;SDS011;3324;50.796;7.228;2023-09-07T00:43:38;0.30;;;0.20;;
6580;SDS011;3324;50.796;7.228;2023-09-07T00:46:05;0.30;;;0.20;;
6580;SDS011;3324;50.796;7.228;2023-09-07T00:48:31;0.30;;;0.20;;
6580;SDS011;3324;50.796;7.228;2023-09-07T00:50:58;0.30;;;0.20;;
6580;SDS011;3324;50.796;7.228;2023-09-07T00:53:26;0.30;;;0.20;;
6580;SDS011;3324;50.796;7.228;2023-09-07T00:55:54;0.30;;;0.20;;
6580;SDS011;3324;50.796;7.228;2023-09-07T00:58:21;0.30;;;0.20;;
6580;SDS011;3324;50.796;7.228;2023-09-07T01:00:46;0.30;;;0.20;;
6580;SDS011;3324;50.796;7.228;2023-09-07T01:03:13;0.30;;;0.20;;
6580;SDS011;3324;50.796;7.228;2023-09-07T01:05:53;1.90;;;0.50;;
6580;SDS011;3324;50.796;7.228;2023-09-07T01:08:24;1.90;;;0.50;;
6580;SDS011;3324;50.796;7.228;2023-09-07T01:10:53;0.30;;;0.20;;
6580;SDS011;3324;50.796;7.228;2023-09-07T01:13:20;0.30;;;0.20;;
6580;SDS011;3324;50.796;7.228;2023-09-07T01:15:46;2.10;;;0.50;;
6580;SDS011;3324;50.796;7.228;2023-09-07T01:18:12;0.30;;;0.20;;
6580;SDS011;3324;50.796;7.228;2023-09-07T01:20:40;1.90;;;0.50;;
6580;SDS011;3324;50.796;7.228;2023-09-07T01:23:06;0.30;;;0.20;;
6580;SDS011;3324;50.796;7.228;2023-09-07T01:25:32;0.30;;;0.20;;
6580;SDS011;3324;50.796;7.228;2023-09-07T01:27:59;0.30;;;0.20;;
6580;SDS011;3324;50.796;7.228;2023-09-07T01:30:26;0.30;;;0.20;;
6580;SDS011;3324;50.796;7.228;2023-09-07T01:32:52;0.30;;;0.20;;
6580;SDS011;3324;50.796;7.228;2023-09-07T01:35:18;0.30;;;0.20;;
6580;SDS011;3324;50.796;7.228;2023-09-07T01:37:46;0.30;;;0.20;;
6580;SDS011;3324;50.796;7.228;2023-09-07T01:40:12;0.30;;;0.20;;
6580;SDS011;3324;50.796;7.228;2023-09-07T01:42:38;0.30;;;0.20;;
6580;SDS011;3324;50.796;7.228;2023-09-07T01:45:04;0.30;;;0.20;;
6580;SDS011;3324;50.796;7.228;2023-09-07T01:47:30;1.90;;;0.50;;
6580;SDS011;3324;50.796;7.228;2023-09-07T01:49:56;2.10;;;0.50;;
6580;SDS011;3324;50.796;7.228;2023-09-07T01:52:21;0.30;;;0.20;;
6580;SDS011;3324;50.796;7.228;2023-09-07T01:54:47;0.30;;;0.20;;
6580;SDS011;3324;50.796;7.228;2023-09-07T01:57:12;1.90;;;0.50;;
6580;SDS011;3324;50.796;7.228;2023-09-07T01:59:38;0.30;;;0.20;;
6580;SDS011;3324;50.796;7.228;2023-09-07T02:02:04;0.30;;;0.20;;
6580;SDS011;3324;50.796;7.228;2023-09-07T02:04:29;0.60;;;0.60;;
6580;SDS011;3324;50.796;7.228;2023-09-07T02:06:55;0.20;;;0.20;;
6580;SDS011;3324;50.796;7.228;2023-09-07T02:09:20;0.30;;;0.20;;
6580;SDS011;3324;50.796;7.228;2023-09-07T02:11:46;0.30;;;0.10;;
6580;SDS011;3324;50.796;7.228;2023-09-07T02:14:11;1.90;;;0.50;;
6580;SDS011;3324;50.796;7.228;2023-09-07T02:16:37;0.30;;;0.20;;
6580;SDS011;3324;50.796;7.228;2023-09-07T02:19:03;0.30;;;0.20;;
6580;SDS011;3324;50.796;7.228;2023-09-07T02:21:29;0.30;;;0.20;;
6580;SDS011;3324;50.796;7.228;2023-09-07T02:23:55;1.90;;;0.50;;
6580;SDS011;3324;50.796;7.228;2023-09-07T02:26:20;0.30;;;0.20;;
6580;SDS011;3324;50.796;7.228;2023-09-07T02:28:46;0.30;;;0.20;;
6580;SDS011;3324;50.796;7.228;2023-09-07T02:31:12;0.30;;;0.20;;
6580;SDS011;3324;50.796;7.228;2023-09-07T02:33:37;1.90;;;0.50;;
6580;SDS011;3324;50.796;7.228;2023-09-07T02:36:03;0.30;;;0.20;;
6580;SDS011;3324;50.796;7.228;2023-09-07T02:38:29;0.30;;;0.20;;
6580;SDS011;3324;50.796;7.228;2023-09-07T02:40:55;1.90;;;0.50;;
6580;SDS011;3324;50.796;7.228;2023-09-07T02:43:22;0.30;;;0.20;;
6580;SDS011;3324;50.796;7.228;2023-09-07T02:45:48;0.30;;;0.20;;
6580;SDS011;3324;50.796;7.228;2023-09-07T02:48:14;0.30;;;0.20;;
6580;SDS011;3324;50.796;7.228;2023-09-07T02:50:40;1.90;;;0.50;;
6580;SDS011;3324;50.796;7.228;2023-09-07T02:53:07;2.00;;;0.50;;
6580;SDS011;3324;50.796;7.228;2023-09-07T02:55:33;1.90;;;0.50;;
6580;SDS011;3324;50.796;7.228;2023-09-07T02:58:02;2.00;;;0.60;;
6580;SDS011;3324;50.796;7.228;2023-09-07T03:00:28;0.30;;;0.20;;
6580;SDS011;3324;50.796;7.228;2023-09-07T03:02:53;0.30;;;0.20;;
6580;SDS011;3324;50.796;7.228;2023-09-07T03:05:19;1.90;;;0.50;;
6580;SDS011;3324;50.796;7.228;2023-09-07T03:07:45;0.30;;;0.20;;
6580;SDS011;3324;50.796;7.228;2023-09-07T03:10:12;0.30;;;0.20;;
6580;SDS011;3324;50.796;7.228;2023-09-07T03:12:37;0.30;;;0.20;;
6580;SDS011;3324;50.796;7.228;2023-09-07T03:15:03;0.30;;;0.20;;
6580;SDS011;3324;50.796;7.228;2023-09-07T03:17:30;0.30;;;0.20;;
6580;SDS011;3324;50.796;7.228;2023-09-07T03:19:55;0.30;;;0.20;;
6580;SDS011;3324;50.796;7.228;2023-09-07T03:22:22;1.90;;;0.50;;
6580;SDS011;3324;50.796;7.228;2023-09-07T03:24:49;2.00;;;0.50;;
6580;SDS011;3324;50.796;7.228;2023-09-07T03:27:18;0.30;;;0.20;;
6580;SDS011;3324;50.796;7.228;2023-09-07T03:29:45;0.30;;;0.20;;
6580;SDS011;3324;50.796;7.228;2023-09-07T03:32:11;0.30;;;0.20;;
6580;SDS011;3324;50.796;7.228;2023-09-07T03:34:36;1.90;;;0.50;;
6580;SDS011;3324;50.796;7.228;2023-09-07T03:37:02;0.30;;;0.10;;
6580;SDS011;3324;50.796;7.228;2023-09-07T03:39:31;0.30;;;0.20;;
6580;SDS011;3324;50.796;7.228;2023-09-07T03:41:57;0.30;;;0.10;;
6580;SDS011;3324;50.796;7.228;2023-09-07T03:44:22;1.90;;;0.50;;
6580;SDS011;3324;50.796;7.228;2023-09-07T03:46:48;0.30;;;0.20;;
6580;SDS011;3324;50.796;7.228;2023-09-07T03:49:13;0.30;;;0.20;;
6580;SDS011;3324;50.796;7.228;2023-09-07T03:51:39;2.10;;;0.50;;
6580;SDS011;3324;50.796;7.228;2023-09-07T03:54:04;0.30;;;0.10;;
6580;SDS011;3324;50.796;7.228;2023-09-07T03:56:30;0.30;;;0.20;;
6580;SDS011;3324;50.796;7.228;2023-09-07T03:58:55;0.30;;;0.10;;
6580;SDS011;3324;50.796;7.228;2023-09-07T04:01:21;1.90;;;0.50;;
6580;SDS011;3324;50.796;7.228;2023-09-07T04:03:46;0.30;;;0.20;;
6580;SDS011;3324;50.796;7.228;2023-09-07T04:06:12;0.30;;;0.10;;
6580;SDS011;3324;50.796;7.228;2023-09-07T04:08:38;1.90;;;0.50;;
6580;SDS011;3324;50.796;7.228;2023-09-07T04:11:04;0.30;;;0.20;;
6580;SDS011;3324;50.796;7.228;2023-09-07T04:13:30;0.30;;;0.20;;
6580;SDS011;3324;50.796;7.228;2023-09-07T04:15:56;0.30;;;0.20;;
6580;SDS011;3324;50.796;7.228;2023-09-07T04:18:21;0.30;;;0.20;;
6580;SDS011;3324;50.796;7.228;2023-09-07T04:20:47;1.90;;;0.50;;
6580;SDS011;3324;50.796;7.228;2023-09-07T04:23:12;0.30;;;0.20;;
6580;SDS011;3324;50.796;7.228;2023-09-07T04:25:38;0.30;;;0.20;;
6580;SDS011;3324;50.796;7.228;2023-09-07T04:28:04;0.30;;;0.17;;
6580;SDS011;3324;50.796;7.228;2023-09-07T04:30:31;0.30;;;0.20;;
6580;SDS011;3324;50.796;7.228;2023-09-07T04:32:57;0.30;;;0.20;;
6580;SDS011;3324;50.796;7.228;2023-09-07T04:35:29;1.90;;;0.50;;
6580;SDS011;3324;50.796;7.228;2023-09-07T04:37:55;1.90;;;0.50;;
6580;SDS011;3324;50.796;7.228;2023-09-07T04:40:22;0.30;;;0.10;;
6580;SDS011;3324;50.796;7.228;2023-09-07T04:42:48;0.30;;;0.10;;
6580;SDS011;3324;50.796;7.228;2023-09-07T04:45:13;0.30;;;0.20;;
6580;SDS011;3324;50.796;7.228;2023-09-07T04:47:39;0.30;;;0.20;;
6580;SDS011;3324;50.796;7.228;2023-09-07T04:50:04;1.90;;;0.50;;
6580;SDS011;3324;50.796;7.228;2023-09-07T04:52:31;1.90;;;0.50;;
6580;SDS011;3324;50.796;7.228;2023-09-07T04:54:57;0.30;;;0.20;;
6580;SDS011;3324;50.796;7.228;2023-09-07T04:57:22;0.30;;;0.20;;
6580;SDS011;3324;50.796;7.228;2023-09-07T04:59:48;0.30;;;0.20;;
6580;SDS011;3324;50.796;7.228;2023-09-07T05:02:13;1.90;;;0.50;;
6580;SDS011;3324;50.796;7.228;2023-09-07T05:04:39;0.30;;;0.10;;
6580;SDS011;3324;50.796;7.228;2023-09-07T05:07:05;0.30;;;0.20;;
6580;SDS011;3324;50.796;7.228;2023-09-07T05:09:30;0.30;;;0.20;;
6580;SDS011;3324;50.796;7.228;2023-09-07T05:11:56;2.10;;;0.50;;
6580;SDS011;3324;50.796;7.228;2023-09-07T05:14:25;0.30;;;0.20;;
6580;SDS011;3324;50.796;7.228;2023-09-07T05:16:51;0.30;;;0.10;;
6580;SDS011;3324;50.796;7.228;2023-09-07T05:19:17;0.30;;;0.20;;
6580;SDS011;3324;50.796;7.228;2023-09-07T05:21:43;0.30;;;0.20;;
6580;SDS011;3324;50.796;7.228;2023-09-07T05:24:08;1.90;;;0.50;;
6580;SDS011;3324;50.796;7.228;2023-09-07T05:26:34;0.30;;;0.20;;
6580;SDS011;3324;50.796;7.228;2023-09-07T05:29:00;0.30;;;0.20;;
6580;SDS011;3324;50.796;7.228;2023-09-07T05:31:25;0.30;;;0.20;;
6580;SDS011;3324;50.796;7.228;2023-09-07T05:33:51;1.90;;;0.50;;
6580;SDS011;3324;50.796;7.228;2023-09-07T05:36:17;0.30;;;0.10;;
6580;SDS011;3324;50.796;7.228;2023-09-07T05:38:43;0.30;;;0.20;;
6580;SDS011;3324;50.796;7.228;2023-09-07T05:41:08;0.30;;;0.20;;
6580;SDS011;3324;50.796;7.228;2023-09-07T05:43:34;1.90;;;0.50;;
6580;SDS011;3324;50.796;7.228;2023-09-07T05:45:59;0.30;;;0.20;;
6580;SDS011;3324;50.796;7.228;2023-09-07T05:48:25;0.30;;;0.20;;
6580;SDS011;3324;50.796;7.228;2023-09-07T05:50:51;1.90;;;0.50;;
6580;SDS011;3324;50.796;7.228;2023-09-07T05:53:18;0.30;;;0.20;;
6580;SDS011;3324;50.796;7.228;2023-09-07T05:55:45;0.30;;;0.20;;
6580;SDS011;3324;50.796;7.228;2023-09-07T05:58:11;0.30;;;0.20;;
6580;SDS011;3324;50.796;7.228;2023-09-07T06:00:37;0.30;;;0.20;;
6580;SDS011;3324;50.796;7.228;2023-09-07T06:03:04;0.30;;;0.20;;
6580;SDS011;3324;50.796;7.228;2023-09-07T06:05:31;0.30;;;0.20;;
6580;SDS011;3324;50.796;7.228;2023-09-07T06:07:59;0.30;;;0.20;;
6580;SDS011;3324;50.796;7.228;2023-09-07T06:10:27;1.90;;;0.50;;
6580;SDS011;3324;50.796;7.228;2023-09-07T06:12:54;0.30;;;0.20;;
6580;SDS011;3324;50.796;7.228;2023-09-07T06:15:20;0.30;;;0.20;;
6580;SDS011;3324;50.796;7.228;2023-09-07T06:17:45;0.30;;;0.20;;
6580;SDS011;3324;50.796;7.228;2023-09-07T06:20:11;2.00;;;0.50;;
6580;SDS011;3324;50.796;7.228;2023-09-07T06:22:36;0.30;;;0.20;;
6580;SDS011;3324;50.796;7.228;2023-09-07T06:25:02;0.30;;;0.20;;
6580;SDS011;3324;50.796;7.228;2023-09-07T06:27:27;1.90;;;0.50;;
6580;SDS011;3324;50.796;7.228;2023-09-07T06:29:53;0.30;;;0.20;;
6580;SDS011;3324;50.796;7.228;2023-09-07T06:32:19;0.30;;;0.20;;
6580;SDS011;3324;50.796;7.228;2023-09-07T06:34:44;1.90;;;0.50;;
6580;SDS011;3324;50.796;7.228;2023-09-07T06:37:11;0.30;;;0.20;;
6580;SDS011;3324;50.796;7.228;2023-09-07T06:39:36;0.30;;;0.20;;
6580;SDS011;3324;50.796;7.228;2023-09-07T06:42:02;0.30;;;0.20;;
6580;SDS011;3324;50.796;7.228;2023-09-07T06:44:28;0.30;;;0.20;;
6580;SDS011;3324;50.796;7.228;2023-09-07T06:46:54;1.20;;;0.80;;
6580;SDS011;3324;50.796;7.228;2023-09-07T06:49:20;1.90;;;0.60;;
6580;SDS011;3324;50.796;7.228;2023-09-07T06:51:46;1.90;;;0.60;;
6580;SDS011;3324;50.796;7.228;2023-09-07T06:54:12;0.30;;;0.20;;
6580;SDS011;3324;50.796;7.228;2023-09-07T06:56:38;0.30;;;0.30;;
6580;SDS011;3324;50.796;7.228;2023-09-07T06:59:03;1.90;;;0.60;;
6580;SDS011;3324;50.796;7.228;2023-09-07T07:01:29;0.30;;;0.20;;
6580;SDS011;3324;50.796;7.228;2023-09-07T07:03:54;0.20;;;0.20;;
6580;SDS011;3324;50.796;7.228;2023-09-07T07:06:21;0.30;;;0.20;;
6580;SDS011;3324;50.796;7.228;2023-09-07T07:08:47;0.30;;;0.20;;
6580;SDS011;3324;50.796;7.228;2023-09-07T07:11:13;2.00;;;1.42;;
6580;SDS011;3324;50.796;7.228;2023-09-07T07:13:38;0.30;;;0.20;;
6580;SDS011;3324;50.796;7.228;2023-09-07T07:16:04;0.20;;;0.20;;
6580;SDS011;3324;50.796;7.228;2023-09-07T07:18:30;2.00;;;1.13;;
6580;SDS011;3324;50.796;7.228;2023-09-07T07:20:55;0.30;;;0.30;;
6580;SDS011;3324;50.796;7.228;2023-09-07T07:23:21;0.30;;;0.20;;
6580;SDS011;3324;50.796;7.228;2023-09-07T07:25:46;1.90;;;0.90;;
6580;SDS011;3324;50.796;7.228;2023-09-07T07:28:12;0.30;;;0.20;;
6580;SDS011;3324;50.796;7.228;2023-09-07T07:30:38;0.30;;;0.20;;
6580;SDS011;3324;50.796;7.228;2023-09-07T07:33:07;0.30;;;0.20;;
6580;SDS011;3324;50.796;7.228;2023-09-07T07:35:33;0.30;;;0.20;;
6580;SDS011;3324;50.796;7.228;2023-09-07T07:38:00;2.30;;;2.10;;
6580;SDS011;3324;50.796;7.228;2023-09-07T07:40:25;2.10;;;1.73;;
6580;SDS011;3324;50.796;7.228;2023-09-07T07:42:52;1.30;;;1.30;;
6580;SDS011;3324;50.796;7.228;2023-09-07T07:45:18;0.80;;;0.80;;
6580;SDS011;3324;50.796;7.228;2023-09-07T07:47:50;1.80;;;1.80;;
6580;SDS011;3324;50.796;7.228;2023-09-07T07:50:19;3.10;;;3.10;;
6580;SDS011;3324;50.796;7.228;2023-09-07T07:52:45;5.47;;;5.27;;
6580;SDS011;3324;50.796;7.228;2023-09-07T07:55:10;5.03;;;4.93;;
6580;SDS011;3324;50.796;7.228;2023-09-07T07:57:37;5.30;;;5.20;;
6580;SDS011;3324;50.796;7.228;2023-09-07T08:00:03;4.50;;;4.50;;
6580;SDS011;3324;50.796;7.228;2023-09-07T08:02:30;6.20;;;6.10;;
6580;SDS011;3324;50.796;7.228;2023-09-07T08:04:56;6.57;;;6.47;;
6580;SDS011;3324;50.796;7.228;2023-09-07T08:07:22;6.20;;;6.10;;
6580;SDS011;3324;50.796;7.228;2023-09-07T08:09:48;5.60;;;5.50;;
6580;SDS011;3324;50.796;7.228;2023-09-07T08:12:15;6.50;;;6.40;;
6580;SDS011;3324;50.796;7.228;2023-09-07T08:14:41;6.50;;;6.40;;
6580;SDS011;3324;50.796;7.228;2023-09-07T08:17:08;7.10;;;6.80;;
6580;SDS011;3324;50.796;7.228;2023-09-07T08:19:33;6.80;;;6.70;;
6580;SDS011;3324;50.796;7.228;2023-09-07T08:21:59;6.80;;;6.70;;
6580;SDS011;3324;50.796;7.228;2023-09-07T08:24:28;7.10;;;7.00;;
6580;SDS011;3324;50.796;7.228;2023-09-07T08:26:54;8.00;;;7.70;;
6580;SDS011;3324;50.796;7.228;2023-09-07T08:29:20;8.60;;;8.30;;
6580;SDS011;3324;50.796;7.228;2023-09-07T08:31:50;6.80;;;6.70;;
6580;SDS011;3324;50.796;7.228;2023-09-07T08:34:15;7.40;;;7.30;;
6580;SDS011;3324;50.796;7.228;2023-09-07T08:36:41;7.70;;;7.60;;
6580;SDS011;3324;50.796;7.228;2023-09-07T08:39:07;8.40;;;8.10;;
6580;SDS011;3324;50.796;7.228;2023-09-07T08:41:44;7.80;;;7.70;;
6580;SDS011;3324;50.796;7.228;2023-09-07T08:44:10;8.60;;;8.30;;
6580;SDS011;3324;50.796;7.228;2023-09-07T08:46:37;8.40;;;8.10;;
6580;SDS011;3324;50.796;7.228;2023-09-07T08:49:03;8.60;;;8.30;;
6580;SDS011;3324;50.796;7.228;2023-09-07T08:51:29;8.60;;;8.30;;
6580;SDS011;3324;50.796;7.228;2023-09-07T08:53:56;8.70;;;8.40;;
6580;SDS011;3324;50.796;7.228;2023-09-07T08:56:22;8.20;;;8.10;;
6580;SDS011;3324;50.796;7.228;2023-09-07T08:58:48;8.20;;;8.10;;
6580;SDS011;3324;50.796;7.228;2023-09-07T09:01:14;8.10;;;8.00;;
6580;SDS011;3324;50.796;7.228;2023-09-07T09:03:43;8.10;;;8.00;;
6580;SDS011;3324;50.796;7.228;2023-09-07T09:06:10;8.40;;;8.20;;
6580;SDS011;3324;50.796;7.228;2023-09-07T09:08:47;8.70;;;8.50;;
6580;SDS011;3324;50.796;7.228;2023-09-07T09:11:18;9.10;;;8.70;;
6580;SDS011;3324;50.796;7.228;2023-09-07T09:13:45;9.10;;;8.90;;
6580;SDS011;3324;50.796;7.228;2023-09-07T09:16:12;9.05;;;8.85;;
6580;SDS011;3324;50.796;7.228;2023-09-07T09:18:46;8.40;;;8.20;;
6580;SDS011;3324;50.796;7.228;2023-09-07T09:21:14;9.20;;;8.80;;
6580;SDS011;3324;50.796;7.228;2023-09-07T09:23:40;9.30;;;8.90;;
6580;SDS011;3324;50.796;7.228;2023-09-07T09:26:06;8.90;;;8.70;;
6580;SDS011;3324;50.796;7.228;2023-09-07T09:28:32;8.70;;;8.50;;
6580;SDS011;3324;50.796;7.228;2023-09-07T09:30:58;9.50;;;9.20;;
6580;SDS011;3324;50.796;7.228;2023-09-07T09:33:24;8.70;;;8.50;;
6580;SDS011;3324;50.796;7.228;2023-09-07T09:35:51;9.30;;;8.90;;
6580;SDS011;3324;50.796;7.228;2023-09-07T09:38:18;9.10;;;8.90;;
6580;SDS011;3324;50.796;7.228;2023-09-07T09:40:44;9.20;;;8.90;;
6580;SDS011;3324;50.796;7.228;2023-09-07T09:43:10;9.20;;;8.80;;
6580;SDS011;3324;50.796;7.228;2023-09-07T09:45:37;9.90;;;9.40;;
6580;SDS011;3324;50.796;7.228;2023-09-07T09:48:03;9.20;;;8.90;;
6580;SDS011;3324;50.796;7.228;2023-09-07T09:50:31;10.13;;;9.63;;
6580;SDS011;3324;50.796;7.228;2023-09-07T09:52:58;9.40;;;9.10;;
6580;SDS011;3324;50.796;7.228;2023-09-07T09:55:24;9.40;;;9.10;;
6580;SDS011;3324;50.796;7.228;2023-09-07T09:57:51;10.00;;;9.50;;
6580;SDS011;3324;50.796;7.228;2023-09-07T10:00:17;9.70;;;9.20;;
6580;SDS011;3324;50.796;7.228;2023-09-07T10:02:44;9.50;;;9.20;;
6580;SDS011;3324;50.796;7.228;2023-09-07T10:05:13;9.57;;;9.27;;
6580;SDS011;3324;50.796;7.228;2023-09-07T10:07:49;10.30;;;9.90;;
6580;SDS011;3324;50.796;7.228;2023-09-07T10:10:15;10.00;;;9.60;;
6580;SDS011;3324;50.796;7.228;2023-09-07T10:12:43;10.60;;;10.00;;
6580;SDS011;3324;50.796;7.228;2023-09-07T10:15:26;10.20;;;9.70;;
6580;SDS011;3324;50.796;7.228;2023-09-07T10:18:03;9.80;;;9.50;;
6580;SDS011;3324;50.796;7.228;2023-09-07T10:23:41;9.70;;;9.40;;
6580;SDS011;3324;50.796;7.228;2023-09-07T10:26:11;10.30;;;9.90;;
6580;SDS011;3324;50.796;7.228;2023-09-07T10:28:39;10.65;;;10.05;;
6580;SDS011;3324;50.796;7.228;2023-09-07T10:33:31;10.80;;;10.40;;
6580;SDS011;3324;50.796;7.228;2023-09-07T10:35:58;11.40;;;10.90;;
6580;SDS011;3324;50.796;7.228;2023-09-07T10:38:25;10.50;;;10.10;;
6580;SDS011;3324;50.796;7.228;2023-09-07T10:40:57;10.80;;;10.40;;
6580;SDS011;3324;50.796;7.228;2023-09-07T10:43:25;11.40;;;10.90;;
6580;SDS011;3324;50.796;7.228;2023-09-07T10:45:51;10.85;;;10.45;;
6580;SDS011;3324;50.796;7.228;2023-09-07T10:48:18;11.60;;;11.00;;
6580;SDS011;3324;50.796;7.228;2023-09-07T10:50:44;11.60;;;11.10;;
6580;SDS011;3324;50.796;7.228;2023-09-07T10:53:14;11.60;;;11.10;;
6580;SDS011;3324;50.796;7.228;2023-09-07T10:55:40;12.80;;;12.20;;
6580;SDS011;3324;50.796;7.228;2023-09-07T10:58:08;13.10;;;12.60;;
6580;SDS011;3324;50.796;7.228;2023-09-07T11:00:34;15.25;;;14.55;;
6580;SDS011;3324;50.796;7.228;2023-09-07T11:03:06;13.40;;;12.80;;
6580;SDS011;3324;50.796;7.228;2023-09-07T11:05:34;13.90;;;13.30;;
6580;SDS011;3324;50.796;7.228;2023-09-07T11:08:02;15.00;;;14.20;;
6580;SDS011;3324;50.796;7.228;2023-09-07T11:10:32;16.43;;;15.53;;
6580;SDS011;3324;50.796;7.228;2023-09-07T11:13:01;17.67;;;16.38;;
6580;SDS011;3324;50.796;7.228;2023-09-07T11:15:29;16.45;;;15.55;;
6580;SDS011;3324;50.796;7.228;2023-09-07T11:17:55;16.20;;;15.00;;
6580;SDS011;3324;50.796;7.228;2023-09-07T11:20:21;16.50;;;15.70;;
6580;SDS011;3324;50.796;7.228;2023-09-07T11:22:48;18.30;;;16.90;;
6580;SDS011;3324;50.796;7.228;2023-09-07T11:25:15;16.60;;;15.80;;
6580;SDS011;3324;50.796;7.228;2023-09-07T11:27:40;16.92;;;16.13;;
6580;SDS011;3324;50.796;7.228;2023-09-07T11:30:06;19.20;;;17.80;;
6580;SDS011;3324;50.796;7.228;2023-09-07T11:32:36;20.58;;;19.08;;
6580;SDS011;3324;50.796;7.228;2023-09-07T11:35:03;17.70;;;16.40;;
6580;SDS011;3324;50.796;7.228;2023-09-07T11:37:32;17.13;;;16.33;;
6580;SDS011;3324;50.796;7.228;2023-09-07T11:39:58;17.80;;;17.00;;
6580;SDS011;3324;50.796;7.228;2023-09-07T11:42:24;19.80;;;18.80;;
6580;SDS011;3324;50.796;7.228;2023-09-07T11:44:50;22.45;;;21.15;;
6580;SDS011;3324;50.796;7.228;2023-09-07T11:47:15;20.70;;;19.70;;
6580;SDS011;3324;50.796;7.228;2023-09-07T11:49:41;17.50;;;16.70;;
6580;SDS011;3324;50.796;7.228;2023-09-07T11:52:06;17.80;;;16.80;;
6580;SDS011;3324;50.796;7.228;2023-09-07T11:54:32;48.95;;;46.13;;
6580;SDS011;3324;50.796;7.228;2023-09-07T11:58:12;17.70;;;16.90;;
6580;SDS011;3324;50.796;7.228;2023-09-07T12:03:46;17.20;;;16.50;;
6580;SDS011;3324;50.796;7.228;2023-09-07T12:07:41;11.70;;;11.30;;
6580;SDS011;3324;50.796;7.228;2023-09-07T12:10:10;18.23;;;17.42;;
6580;SDS011;3324;50.796;7.228;2023-09-07T12:13:39;13.87;;;13.37;;
6580;SDS011;3324;50.796;7.228;2023-09-07T12:25:30;10.60;;;10.30;;
6580;SDS011;3324;50.796;7.228;2023-09-07T12:30:26;13.05;;;12.65;;
6580;SDS011;3324;50.796;7.228;2023-09-07T12:34:47;11.00;;;10.70;;
6580;SDS011;3324;50.796;7.228;2023-09-07T12:37:18;15.10;;;14.50;;
6580;SDS011;3324;50.796;7.228;2023-09-07T12:40:50;14.25;;;13.75;;
6580;SDS011;3324;50.796;7.228;2023-09-07T12:58:05;9.35;;;9.15;;
6580;SDS011;3324;50.796;7.228;2023-09-07T13:01:27;6.45;;;6.35;;
6580;SDS011;3324;50.796;7.228;2023-09-07T13:41:34;2.20;;;2.20;;
6580;SDS011;3324;50.796;7.228;2023-09-07T14:04:28;3.08;;;3.08;;
6580;SDS011;3324;50.796;7.228;2023-09-07T15:29:54;1.60;;;1.60;;
6580;SDS011;3324;50.796;7.228;2023-09-07T15:34:46;1.20;;;1.20;;
6580;SDS011;3324;50.796;7.228;2023-09-07T15:38:59;2.90;;;2.90;;
6580;SDS011;3324;50.796;7.228;2023-09-07T15:41:25;4.35;;;4.35;;
6580;SDS011;3324;50.796;7.228;2023-09-07T15:44:31;2.70;;;2.50;;
6580;SDS011;3324;50.796;7.228;2023-09-07T15:46:56;3.87;;;3.67;;
6580;SDS011;3324;50.796;7.228;2023-09-07T15:50:43;1.35;;;1.35;;
6580;SDS011;3324;50.796;7.228;2023-09-07T15:53:08;2.10;;;2.10;;
6580;SDS011;3324;50.796;7.228;2023-09-07T15:55:34;2.60;;;2.60;;
6580;SDS011;3324;50.796;7.228;2023-09-07T15:58:00;2.67;;;2.67;;
6580;SDS011;3324;50.796;7.228;2023-09-07T16:00:25;2.30;;;2.10;;
6580;SDS011;3324;50.796;7.228;2023-09-07T16:02:51;1.08;;;1.08;;
6580;SDS011;3324;50.796;7.228;2023-09-07T16:05:17;1.30;;;1.30;;
6580;SDS011;3324;50.796;7.228;2023-09-07T16:07:42;1.90;;;1.60;;
6580;SDS011;3324;50.796;7.228;2023-09-07T16:10:08;1.17;;;1.17;;
6580;SDS011;3324;50.796;7.228;2023-09-07T16:12:35;1.80;;;1.80;;
6580;SDS011;3324;50.796;7.228;2023-09-07T16:15:01;1.20;;;1.20;;
6580;SDS011;3324;50.796;7.228;2023-09-07T16:17:26;2.00;;;1.70;;
6580;SDS011;3324;50.796;7.228;2023-09-07T16:19:52;2.20;;;2.20;;
6580;SDS011;3324;50.796;7.228;2023-09-07T16:22:17;2.03;;;2.03;;
6580;SDS011;3324;50.796;7.228;2023-09-07T16:24:44;2.70;;;2.50;;
6580;SDS011;3324;50.796;7.228;2023-09-07T16:27:09;1.70;;;1.70;;
6580;SDS011;3324;50.796;7.228;2023-09-07T16:29:35;2.20;;;2.20;;
6580;SDS011;3324;50.796;7.228;2023-09-07T16:32:01;2.87;;;2.67;;
6580;SDS011;3324;50.796;7.228;2023-09-07T16:34:27;2.13;;;2.13;;
6580;SDS011;3324;50.796;7.228;2023-09-07T16:36:52;2.73;;;2.73;;
6580;SDS011;3324;50.796;7.228;2023-09-07T16:39:18;1.50;;;1.50;;
6580;SDS011;3324;50.796;7.228;2023-09-07T16:41:44;1.10;;;1.10;;
6580;SDS011;3324;50.796;7.228;2023-09-07T16:44:09;1.30;;;1.30;;
6580;SDS011;3324;50.796;7.228;2023-09-07T16:46:35;1.80;;;1.80;;
6580;SDS011;3324;50.796;7.228;2023-09-07T16:49:00;2.00;;;2.00;;
6580;SDS011;3324;50.796;7.228;2023-09-07T16:51:26;3.10;;;2.90;;
6580;SDS011;3324;50.796;7.228;2023-09-07T16:53:52;2.30;;;2.30;;
6580;SDS011;3324;50.796;7.228;2023-09-07T16:56:18;2.50;;;2.50;;
6580;SDS011;3324;50.796;7.228;2023-09-07T16:58:45;4.75;;;4.70;;
6580;SDS011;3324;50.796;7.228;2023-09-07T17:01:11;4.50;;;4.50;;
6580;SDS011;3324;50.796;7.228;2023-09-07T17:03:37;5.70;;;5.50;;
6580;SDS011;3324;50.796;7.228;2023-09-07T17:06:02;4.80;;;4.70;;
6580;SDS011;3324;50.796;7.228;2023-09-07T17:08:28;4.97;;;4.87;;
6580;SDS011;3324;50.796;7.228;2023-09-07T17:10:54;4.60;;;4.60;;
6580;SDS011;3324;50.796;7.228;2023-09-07T17:13:19;5.27;;;5.17;;
6580;SDS011;3324;50.796;7.228;2023-09-07T17:15:48;5.50;;;5.30;;
6580;SDS011;3324;50.796;7.228;2023-09-07T17:18:14;5.30;;;5.20;;
6580;SDS011;3324;50.796;7.228;2023-09-07T17:20:40;4.40;;;4.40;;
6580;SDS011;3324;50.796;7.228;2023-09-07T17:23:05;6.50;;;6.30;;
6580;SDS011;3324;50.796;7.228;2023-09-07T17:25:32;5.20;;;5.10;;
6580;SDS011;3324;50.796;7.228;2023-09-07T17:27:59;5.50;;;5.30;;
6580;SDS011;3324;50.796;7.228;2023-09-07T17:30:25;5.55;;;5.45;;
6580;SDS011;3324;50.796;7.228;2023-09-07T17:32:51;4.60;;;4.60;;
6580;SDS011;3324;50.796;7.228;2023-09-07T17:35:21;4.40;;;4.40;;
6580;SDS011;3324;50.796;7.228;2023-09-07T17:37:48;4.40;;;4.40;;
6580;SDS011;3324;50.796;7.228;2023-09-07T17:40:14;4.60;;;4.60;;
6580;SDS011;3324;50.796;7.228;2023-09-07T17:42:41;4.60;;;4.60;;
6580;SDS011;3324;50.796;7.228;2023-09-07T17:45:07;4.70;;;4.70;;
6580;SDS011;3324;50.796;7.228;2023-09-07T17:47:33;5.50;;;5.30;;
6580;SDS011;3324;50.796;7.228;2023-09-07T17:49:59;4.60;;;4.60;;
6580;SDS011;3324;50.796;7.228;2023-09-07T17:52:24;4.50;;;4.50;;
6580;SDS011;3324;50.796;7.228;2023-09-07T17:54:50;5.40;;;5.20;;
6580;SDS011;3324;50.796;7.228;2023-09-07T17:57:16;4.85;;;4.80;;
6580;SDS011;3324;50.796;7.228;2023-09-07T17:59:42;4.10;;;4.10;;
6580;SDS011;3324;50.796;7.228;2023-09-07T18:02:21;4.95;;;4.75;;
6580;SDS011;3324;50.796;7.228;2023-09-07T18:04:53;3.80;;;3.80;;
6580;SDS011;3324;50.796;7.228;2023-09-07T18:07:19;5.30;;;5.10;;
6580;SDS011;3324;50.796;7.228;2023-09-07T18:09:45;4.60;;;4.40;;
6580;SDS011;3324;50.796;7.228;2023-09-07T18:12:11;3.80;;;3.80;;
6580;SDS011;3324;50.796;7.228;2023-09-07T18:14:37;3.70;;;3.70;;
6580;SDS011;3324;50.796;7.228;2023-09-07T18:17:03;4.60;;;4.40;;
6580;SDS011;3324;50.796;7.228;2023-09-07T18:19:29;3.90;;;3.90;;